createdAt,value
2017-10-01T00:00:14.622Z,55.20
2017-10-01T00:02:49.073Z,55.20
2017-10-01T00:05:23.448Z,55.40
2017-10-01T00:07:57.076Z,55.30
2017-10-01T00:10:30.885Z,55.40
2017-10-01T00:13:04.781Z,55.40
2017-10-01T00:15:39.528Z,55.50
2017-10-01T00:18:13.765Z,55.40
2017-10-01T00:20:48.309Z,55.40
2017-10-01T00:23:22.183Z,55.40
2017-10-01T00:25:56.181Z,55.40
2017-10-01T00:28:30.126Z,55.30
2017-10-01T00:31:04.709Z,55.40
2017-10-01T00:33:38.890Z,55.30
2017-10-01T00:36:13.469Z,55.40
2017-10-01T00:38:47.400Z,55.30
2017-10-01T00:41:21.135Z,54.80
2017-10-01T00:43:55.004Z,55.20
2017-10-01T00:46:29.001Z,55.30
2017-10-01T00:49:03.021Z,55.40
2017-10-01T00:51:36.807Z,55.40
2017-10-01T00:54:11.521Z,55.30
2017-10-01T00:56:45.762Z,55.30
2017-10-01T00:59:20.662Z,55.30
2017-10-01T01:01:55.093Z,55.20
2017-10-01T01:04:28.948Z,55.30
2017-10-01T01:07:03.718Z,55.70
2017-10-01T01:09:37.725Z,55.10
2017-10-01T01:12:11.660Z,55.30
2017-10-01T01:14:46.565Z,55.30
2017-10-01T01:17:21.092Z,54.80
2017-10-01T01:19:55.340Z,55.30
2017-10-01T01:22:29.096Z,55.10
2017-10-01T01:25:02.758Z,55.10
2017-10-01T01:27:37.452Z,55.50
2017-10-01T01:30:11.524Z,54.90
2017-10-01T01:32:45.974Z,55.00
2017-10-01T01:35:20.404Z,55.00
2017-10-01T01:37:54.061Z,55.00
2017-10-01T01:40:28.506Z,55.00
2017-10-01T01:43:02.622Z,55.00
2017-10-01T01:45:36.668Z,54.90
2017-10-01T01:48:10.553Z,54.90
2017-10-01T01:50:44.365Z,54.90
2017-10-01T01:53:18.097Z,54.80
2017-10-01T01:55:52.768Z,54.90
2017-10-01T01:58:26.906Z,54.80
2017-10-01T02:01:00.608Z,54.80
2017-10-01T02:03:34.423Z,54.80
2017-10-01T02:06:08.442Z,54.80
2017-10-01T02:08:42.451Z,54.70
2017-10-01T02:11:16.962Z,54.50
2017-10-01T02:13:51.964Z,54.60
2017-10-01T02:16:26.107Z,54.50
2017-10-01T02:19:00.123Z,54.50
2017-10-01T02:21:33.914Z,54.50
2017-10-01T02:24:07.928Z,54.40
2017-10-01T02:26:41.668Z,54.40
2017-10-01T02:29:15.392Z,54.30
2017-10-01T02:31:49.217Z,54.20
2017-10-01T02:34:23.044Z,54.30
2017-10-01T02:36:56.765Z,54.30
2017-10-01T02:39:30.911Z,54.20
2017-10-01T02:42:04.801Z,54.20
2017-10-01T02:44:39.993Z,54.10
2017-10-01T02:47:14.056Z,54.20
2017-10-01T02:49:47.781Z,54.90
2017-10-01T02:52:21.728Z,54.20
2017-10-01T02:54:55.504Z,54.70
2017-10-01T02:57:29.292Z,54.10
2017-10-01T03:00:03.753Z,54.10
2017-10-01T03:02:37.972Z,54.00
2017-10-01T03:05:12.688Z,54.10
2017-10-01T03:07:47.646Z,54.90
2017-10-01T03:10:22.370Z,53.90
2017-10-01T03:12:56.480Z,53.90
2017-10-01T03:15:30.305Z,53.90
2017-10-01T03:18:04.985Z,54.00
2017-10-01T03:20:39.192Z,54.00
2017-10-01T03:23:12.935Z,53.80
2017-10-01T03:25:47.453Z,53.80
2017-10-01T03:28:22.356Z,53.80
2017-10-01T03:30:56.481Z,53.80
2017-10-01T03:33:30.305Z,53.90
2017-10-01T03:36:05.001Z,54.50
2017-10-01T03:38:39.851Z,53.80
2017-10-01T03:41:13.871Z,53.80
2017-10-01T03:43:47.679Z,53.70
2017-10-01T03:46:21.884Z,53.80
2017-10-01T03:48:55.562Z,53.70
2017-10-01T03:51:29.242Z,53.40
2017-10-01T03:54:03.049Z,53.70
2017-10-01T03:56:36.932Z,53.30
2017-10-01T03:59:11.404Z,53.50
2017-10-01T04:01:45.366Z,53.50
2017-10-01T04:04:19.933Z,54.00
2017-10-01T04:06:54.322Z,53.30
2017-10-01T04:09:28.969Z,53.20
2017-10-01T04:12:03.037Z,53.20
2017-10-01T04:14:37.700Z,53.20
2017-10-01T04:17:12.024Z,53.20
2017-10-01T04:19:45.640Z,53.20
2017-10-01T04:22:19.205Z,53.20
2017-10-01T04:24:54.453Z,53.20
2017-10-01T04:27:29.525Z,53.10
2017-10-01T04:30:03.458Z,53.10
2017-10-01T04:32:37.749Z,53.80
2017-10-01T04:35:11.528Z,52.70
2017-10-01T04:37:45.437Z,53.20
2017-10-01T04:40:19.270Z,53.20
2017-10-01T04:42:52.898Z,53.40
2017-10-01T04:45:27.669Z,53.40
2017-10-01T04:48:01.800Z,53.40
2017-10-01T04:50:35.656Z,53.60
2017-10-01T04:53:09.450Z,53.80
2017-10-01T04:55:43.129Z,53.80
2017-10-01T04:58:16.856Z,53.80
2017-10-01T05:00:50.637Z,53.90
2017-10-01T05:03:25.249Z,54.00
2017-10-01T05:05:58.980Z,54.10
2017-10-01T05:08:32.922Z,54.10
2017-10-01T05:11:07.503Z,54.20
2017-10-01T05:13:42.200Z,54.30
2017-10-01T05:16:16.058Z,54.20
2017-10-01T05:18:49.832Z,54.30
2017-10-01T05:21:25.212Z,54.40
2017-10-01T05:23:59.877Z,55.10
2017-10-01T05:26:33.921Z,54.40
2017-10-01T05:29:08.092Z,54.50
2017-10-01T05:31:42.617Z,54.60
2017-10-01T05:34:16.519Z,54.60
2017-10-01T05:36:50.269Z,54.60
2017-10-01T05:39:24.782Z,54.70
2017-10-01T05:41:59.669Z,54.70
2017-10-01T05:44:33.790Z,54.70
2017-10-01T05:47:07.652Z,54.90
2017-10-01T05:49:42.537Z,54.90
2017-10-01T05:52:16.701Z,54.90
2017-10-01T05:54:50.397Z,54.90
2017-10-01T05:57:25.085Z,54.90
2017-10-01T05:59:59.209Z,54.90
2017-10-01T06:02:32.936Z,54.80
2017-10-01T06:05:06.781Z,54.90
2017-10-01T06:07:40.718Z,55.00
2017-10-01T06:10:14.576Z,55.00
2017-10-01T06:12:48.566Z,54.90
2017-10-01T06:15:23.256Z,55.00
2017-10-01T06:17:57.297Z,55.00
2017-10-01T06:20:31.104Z,55.60
2017-10-01T06:23:04.829Z,55.00
2017-10-01T06:25:39.407Z,55.00
2017-10-01T06:28:13.451Z,55.00
2017-10-01T06:30:47.383Z,55.00
2017-10-01T06:33:21.042Z,55.00
2017-10-01T06:35:54.749Z,55.00
2017-10-01T06:38:28.874Z,55.00
2017-10-01T06:41:02.557Z,55.40
2017-10-01T06:43:37.072Z,55.20
2017-10-01T06:46:11.889Z,55.10
2017-10-01T06:48:45.896Z,55.00
2017-10-01T06:51:19.807Z,55.00
2017-10-01T06:53:58.644Z,55.20
2017-10-01T06:56:33.978Z,55.20
2017-10-01T06:59:08.197Z,55.20
2017-10-01T07:01:42.874Z,55.20
2017-10-01T07:04:17.410Z,55.30
2017-10-01T07:07:11.576Z,55.20
2017-10-01T07:09:46.073Z,55.20
2017-10-01T07:12:20.020Z,55.20
2017-10-01T07:14:53.789Z,55.30
2017-10-01T07:17:28.391Z,55.40
2017-10-01T07:20:02.392Z,55.40
2017-10-01T07:22:36.501Z,55.40
2017-10-01T07:25:10.896Z,55.90
2017-10-01T07:27:45.159Z,59.70
2017-10-01T07:30:19.685Z,56.00
2017-10-01T07:32:53.580Z,55.60
2017-10-01T07:35:28.101Z,56.70
2017-10-01T07:38:02.227Z,59.20
2017-10-01T07:40:36.702Z,60.60
2017-10-01T07:43:10.737Z,55.10
2017-10-01T07:45:44.433Z,55.50
2017-10-01T07:48:18.472Z,55.70
2017-10-01T07:50:52.292Z,55.50
2017-10-01T07:53:26.216Z,54.90
2017-10-01T07:56:00.138Z,55.20
2017-10-01T07:58:34.667Z,55.50
2017-10-01T08:01:08.342Z,55.50
2017-10-01T08:03:43.040Z,55.60
2017-10-01T08:06:16.958Z,55.60
2017-10-01T08:08:51.340Z,55.50
2017-10-01T08:11:25.601Z,55.40
2017-10-01T08:14:00.079Z,55.50
2017-10-01T08:16:34.958Z,55.00
2017-10-01T08:19:09.040Z,55.10
2017-10-01T08:21:42.920Z,55.00
2017-10-01T08:24:17.190Z,55.20
2017-10-01T08:26:51.665Z,55.40
2017-10-01T08:29:25.656Z,55.40
2017-10-01T08:32:00.402Z,55.40
2017-10-01T08:34:34.566Z,55.40
2017-10-01T08:37:08.454Z,55.50
2017-10-01T08:39:42.256Z,55.50
2017-10-01T08:42:16.745Z,55.40
2017-10-01T08:44:50.934Z,55.40
2017-10-01T08:47:25.485Z,55.10
2017-10-01T08:49:59.633Z,55.10
2017-10-01T08:52:34.023Z,54.60
2017-10-01T08:55:08.231Z,54.60
2017-10-01T08:57:42.129Z,55.30
2017-10-01T09:00:16.034Z,55.10
2017-10-01T09:02:49.737Z,54.70
2017-10-01T09:05:23.704Z,54.60
2017-10-01T09:07:57.435Z,54.40
2017-10-01T09:10:31.387Z,54.20
2017-10-01T09:13:05.919Z,54.30
2017-10-01T09:15:39.921Z,53.30
2017-10-01T09:18:14.558Z,53.60
2017-10-01T09:20:48.688Z,53.60
2017-10-01T09:23:23.638Z,53.00
2017-10-01T09:25:59.386Z,53.00
2017-10-01T09:28:34.489Z,52.70
2017-10-01T09:31:08.444Z,52.70
2017-10-01T09:33:43.101Z,52.40
2017-10-01T09:36:18.134Z,53.00
2017-10-01T09:38:53.021Z,52.20
2017-10-01T09:41:27.674Z,53.30
2017-10-01T09:44:01.584Z,53.30
2017-10-01T09:46:36.816Z,53.20
2017-10-01T09:49:11.308Z,53.10
2017-10-01T09:51:45.181Z,52.60
2017-10-01T09:54:19.142Z,52.80
2017-10-01T09:56:52.757Z,52.50
2017-10-01T09:59:27.531Z,51.80
2017-10-01T10:02:01.343Z,51.60
2017-10-01T10:04:35.021Z,51.60
2017-10-01T10:07:09.630Z,51.90
2017-10-01T10:09:44.346Z,51.90
2017-10-01T10:12:18.476Z,51.90
2017-10-01T10:14:52.301Z,52.00
2017-10-01T10:17:26.957Z,51.80
2017-10-01T10:20:00.915Z,51.80
2017-10-01T10:22:34.855Z,52.50
2017-10-01T10:25:08.932Z,52.10
2017-10-01T10:27:43.550Z,51.80
2017-10-01T10:30:18.078Z,51.60
2017-10-01T10:32:52.341Z,51.60
2017-10-01T10:35:27.098Z,52.10
2017-10-01T10:38:00.872Z,51.50
2017-10-01T10:40:35.352Z,50.90
2017-10-01T10:43:09.260Z,51.00
2017-10-01T10:45:43.173Z,50.20
2017-10-01T10:48:16.785Z,50.50
2017-10-01T10:50:50.513Z,51.10
2017-10-01T10:53:24.326Z,51.10
2017-10-01T10:55:58.089Z,50.80
2017-10-01T10:58:31.810Z,50.50
2017-10-01T11:01:05.426Z,50.30
2017-10-01T11:03:39.894Z,50.40
2017-10-01T11:06:14.849Z,50.80
2017-10-01T11:08:49.550Z,50.40
2017-10-01T11:11:24.398Z,50.40
2017-10-01T11:13:58.432Z,50.40
2017-10-01T11:16:32.184Z,50.40
2017-10-01T11:19:07.139Z,51.20
2017-10-01T11:21:41.429Z,50.50
2017-10-01T11:24:16.074Z,50.20
2017-10-01T11:26:50.187Z,50.20
2017-10-01T11:29:23.881Z,50.30
2017-10-01T11:31:57.858Z,49.80
2017-10-01T11:34:31.697Z,49.20
2017-10-01T11:37:05.760Z,49.10
2017-10-01T11:39:40.148Z,49.00
2017-10-01T11:42:13.932Z,49.10
2017-10-01T11:44:47.789Z,48.80
2017-10-01T11:47:21.722Z,48.30
2017-10-01T11:49:55.491Z,48.00
2017-10-01T11:52:29.448Z,47.90
2017-10-01T11:55:03.084Z,48.00
2017-10-01T11:57:37.113Z,47.20
2017-10-01T12:00:11.857Z,43.60
2017-10-01T12:02:45.838Z,42.70
2017-10-01T12:05:19.934Z,40.80
2017-10-01T12:07:54.634Z,37.10
2017-10-01T12:10:28.699Z,37.00
2017-10-01T12:13:02.578Z,36.20
2017-10-01T12:15:36.369Z,38.50
2017-10-01T12:18:11.023Z,41.30
2017-10-01T12:20:45.306Z,41.20
2017-10-01T12:23:19.841Z,42.90
2017-10-01T12:25:53.636Z,43.80
2017-10-01T12:28:27.326Z,44.50
2017-10-01T12:31:01.318Z,45.00
2017-10-01T12:33:35.877Z,45.50
2017-10-01T12:36:09.941Z,45.50
2017-10-01T12:38:44.164Z,46.30
2017-10-01T12:41:17.926Z,46.30
2017-10-01T12:43:51.768Z,46.30
2017-10-01T12:46:25.630Z,46.00
2017-10-01T12:48:59.511Z,46.50
2017-10-01T12:51:33.097Z,45.90
2017-10-01T12:54:07.064Z,47.70
2017-10-01T12:56:41.956Z,48.50
2017-10-01T12:59:16.814Z,49.10
2017-10-01T13:01:56.713Z,49.00
2017-10-01T13:04:30.800Z,49.50
2017-10-01T13:07:04.480Z,49.40
2017-10-01T13:09:38.149Z,48.10
2017-10-01T13:12:12.809Z,48.60
2017-10-01T13:14:46.922Z,48.50
2017-10-01T13:17:21.541Z,48.60
2017-10-01T13:19:56.233Z,48.40
2017-10-01T13:22:31.097Z,48.40
2017-10-01T13:25:05.940Z,48.50
2017-10-01T13:27:39.982Z,48.50
2017-10-01T13:30:14.530Z,48.40
2017-10-01T13:32:48.508Z,48.30
2017-10-01T13:35:22.246Z,48.00
2017-10-01T13:37:56.142Z,47.90
2017-10-01T13:40:29.801Z,54.00
2017-10-01T13:43:04.365Z,48.00
2017-10-01T13:45:38.426Z,48.00
2017-10-01T13:48:13.000Z,48.30
2017-10-01T13:50:47.250Z,48.30
2017-10-01T13:53:20.981Z,47.40
2017-10-01T13:55:54.893Z,48.20
2017-10-01T13:58:29.597Z,48.10
2017-10-01T14:01:03.633Z,48.10
2017-10-01T14:03:37.281Z,47.60
2017-10-01T14:06:12.036Z,48.00
2017-10-01T14:08:46.741Z,48.50
2017-10-01T14:11:20.604Z,48.40
2017-10-01T14:13:54.355Z,48.10
2017-10-01T14:16:28.269Z,47.30
2017-10-01T14:19:02.104Z,47.40
2017-10-01T14:21:35.792Z,47.00
2017-10-01T14:24:10.215Z,46.20
2017-10-01T14:26:44.154Z,46.20
2017-10-01T14:29:18.034Z,46.30
2017-10-01T14:31:51.898Z,46.10
2017-10-01T14:34:26.570Z,46.80
2017-10-01T14:37:01.360Z,46.80
2017-10-01T14:39:35.792Z,46.70
2017-10-01T14:42:09.513Z,46.40
2017-10-01T14:44:43.941Z,44.60
2017-10-01T14:47:18.736Z,45.10
2017-10-01T14:49:52.757Z,44.70
2017-10-01T14:52:26.484Z,44.10
2017-10-01T14:55:00.235Z,42.90
2017-10-01T14:57:34.899Z,41.90
2017-10-01T15:00:08.843Z,41.80
2017-10-01T15:02:42.688Z,41.40
2017-10-01T15:05:16.695Z,41.30
2017-10-01T15:07:50.518Z,41.90
2017-10-01T15:10:25.206Z,43.00
2017-10-01T15:12:59.144Z,43.00
2017-10-01T15:15:33.092Z,43.10
2017-10-01T15:18:09.421Z,43.40
2017-10-01T15:20:44.589Z,43.60
2017-10-01T15:23:19.396Z,43.60
2017-10-01T15:25:53.481Z,43.50
2017-10-01T15:28:27.284Z,43.80
2017-10-01T15:31:01.236Z,43.60
2017-10-01T15:33:35.372Z,43.00
2017-10-01T15:36:09.090Z,42.60
2017-10-01T15:38:43.084Z,42.60
2017-10-01T15:41:16.817Z,42.90
2017-10-01T15:43:51.365Z,42.30
2017-10-01T15:46:25.245Z,42.30
2017-10-01T15:48:59.025Z,42.60
2017-10-01T15:51:33.097Z,42.50
2017-10-01T15:54:07.173Z,42.80
2017-10-01T15:56:41.850Z,43.60
2017-10-01T15:59:15.733Z,43.50
2017-10-01T16:01:49.715Z,43.80
2017-10-01T16:04:23.441Z,43.90
2017-10-01T16:06:57.240Z,43.50
2017-10-01T16:09:31.083Z,43.10
2017-10-01T16:12:05.576Z,42.80
2017-10-01T16:14:39.585Z,42.60
2017-10-01T16:17:13.297Z,43.30
2017-10-01T16:19:47.041Z,43.10
2017-10-01T16:22:21.550Z,43.30
2017-10-01T16:24:55.354Z,43.20
2017-10-01T16:27:29.093Z,43.60
2017-10-01T16:30:02.833Z,43.60
2017-10-01T16:32:36.582Z,43.90
2017-10-01T16:35:10.197Z,43.90
2017-10-01T16:37:43.858Z,44.40
2017-10-01T16:40:17.666Z,44.20
2017-10-01T16:42:52.819Z,45.40
2017-10-01T16:45:26.434Z,45.40
2017-10-01T16:48:00.458Z,45.80
2017-10-01T16:50:34.490Z,46.00
2017-10-01T16:53:08.333Z,46.40
2017-10-01T16:55:42.519Z,46.70
2017-10-01T16:58:17.050Z,46.70
2017-10-01T17:00:51.033Z,46.70
2017-10-01T17:03:25.703Z,46.90
2017-10-01T17:06:00.418Z,47.50
2017-10-01T17:08:34.144Z,46.80
2017-10-01T17:11:08.960Z,47.40
2017-10-01T17:13:43.463Z,47.70
2017-10-01T17:16:17.376Z,47.10
2017-10-01T17:18:51.912Z,46.80
2017-10-01T17:21:25.837Z,46.70
2017-10-01T17:23:59.409Z,47.00
2017-10-01T17:26:33.256Z,47.30
2017-10-01T17:29:07.164Z,47.10
2017-10-01T17:31:41.708Z,46.90
2017-10-01T17:34:16.365Z,46.70
2017-10-01T17:36:50.454Z,47.00
2017-10-01T17:39:24.436Z,48.20
2017-10-01T17:41:59.101Z,47.20
2017-10-01T17:44:33.157Z,47.20
2017-10-01T17:47:07.860Z,47.40
2017-10-01T17:49:43.514Z,47.30
2017-10-01T17:52:18.620Z,47.90
2017-10-01T17:54:53.816Z,47.40
2017-10-01T17:57:27.753Z,47.50
2017-10-01T18:00:01.390Z,47.60
2017-10-01T18:02:35.914Z,47.30
2017-10-01T18:05:10.257Z,47.30
2017-10-01T18:07:44.701Z,47.50
2017-10-01T18:10:18.517Z,47.30
2017-10-01T18:12:53.056Z,46.90
2017-10-01T18:15:27.193Z,46.90
2017-10-01T18:18:00.906Z,46.70
2017-10-01T18:20:34.597Z,46.00
2017-10-01T18:23:09.924Z,46.50
2017-10-01T18:25:44.184Z,46.50
2017-10-01T18:28:18.053Z,46.90
2017-10-01T18:30:51.767Z,47.00
2017-10-01T18:33:25.689Z,47.40
2017-10-01T18:36:00.180Z,46.80
2017-10-01T18:38:34.186Z,46.70
2017-10-01T18:41:08.271Z,47.10
2017-10-01T18:43:42.176Z,47.50
2017-10-01T18:46:15.896Z,46.70
2017-10-01T18:48:50.570Z,47.70
2017-10-01T18:51:25.353Z,47.80
2017-10-01T18:53:59.336Z,47.40
2017-10-01T18:56:33.050Z,48.00
2017-10-01T18:59:06.912Z,47.70
2017-10-01T19:01:40.697Z,47.70
2017-10-01T19:04:14.701Z,47.40
2017-10-01T19:06:49.312Z,47.60
2017-10-01T19:09:23.209Z,48.10
2017-10-01T19:11:57.001Z,41.40
2017-10-01T19:14:30.733Z,41.80
2017-10-01T19:17:04.770Z,46.20
2017-10-01T19:19:38.357Z,46.90
2017-10-01T19:22:12.228Z,47.10
2017-10-01T19:24:45.987Z,47.60
2017-10-01T19:27:19.685Z,48.00
2017-10-01T19:29:53.714Z,47.80
2017-10-01T19:32:34.069Z,48.00
2017-10-01T19:35:08.738Z,47.80
2017-10-01T19:37:43.493Z,48.00
2017-10-01T19:40:17.569Z,47.90
2017-10-01T19:42:51.476Z,48.20
2017-10-01T19:45:25.896Z,48.30
2017-10-01T19:47:59.839Z,48.40
2017-10-01T19:50:33.739Z,48.80
2017-10-01T19:53:07.638Z,49.40
2017-10-01T19:55:42.281Z,49.10
2017-10-01T19:58:16.392Z,49.00
2017-10-01T20:00:51.129Z,49.00
2017-10-01T20:03:25.175Z,49.00
2017-10-01T20:05:59.764Z,49.20
2017-10-01T20:08:33.715Z,49.20
2017-10-01T20:11:08.197Z,49.50
2017-10-01T20:13:42.390Z,49.40
2017-10-01T20:16:16.902Z,49.60
2017-10-01T20:18:50.727Z,49.50
2017-10-01T20:21:25.141Z,49.50
2017-10-01T20:23:58.853Z,49.50
2017-10-01T20:26:32.850Z,49.30
2017-10-01T20:29:06.801Z,49.40
2017-10-01T20:31:40.697Z,49.30
2017-10-01T20:34:14.476Z,49.60
2017-10-01T20:36:49.392Z,50.00
2017-10-01T20:39:23.240Z,49.40
2017-10-01T20:41:57.907Z,49.60
2017-10-01T20:44:32.330Z,49.60
2017-10-01T20:47:06.421Z,49.70
2017-10-01T20:49:40.192Z,49.70
2017-10-01T20:52:14.794Z,49.90
2017-10-01T20:54:48.673Z,49.90
2017-10-01T20:57:22.385Z,49.80
2017-10-01T20:59:56.917Z,49.90
2017-10-01T21:02:31.061Z,49.90
2017-10-01T21:05:04.681Z,49.80
2017-10-01T21:07:39.041Z,50.00
2017-10-01T21:10:13.925Z,50.20
2017-10-01T21:12:48.514Z,50.30
2017-10-01T21:15:23.483Z,50.30
2017-10-01T21:17:57.404Z,50.20
2017-10-01T21:20:31.187Z,50.30
2017-10-01T21:23:05.849Z,50.60
2017-10-01T21:25:39.949Z,50.60
2017-10-01T21:28:14.405Z,50.50
2017-10-01T21:30:48.745Z,50.50
2017-10-01T21:33:23.262Z,50.60
2017-10-01T21:35:57.255Z,50.60
2017-10-01T21:38:31.177Z,50.70
2017-10-01T21:41:04.934Z,50.50
2017-10-01T21:43:38.624Z,50.80
2017-10-01T21:46:12.355Z,51.30
2017-10-01T21:48:46.192Z,51.30
2017-10-01T21:51:20.355Z,51.30
2017-10-01T21:53:54.917Z,51.30
2017-10-01T21:56:28.880Z,51.30
2017-10-01T21:59:02.566Z,51.30
2017-10-01T22:01:37.072Z,51.40
2017-10-01T22:04:11.193Z,51.30
2017-10-01T22:06:45.581Z,51.20
2017-10-01T22:09:19.565Z,51.20
2017-10-01T22:11:54.034Z,51.90
2017-10-01T22:14:28.278Z,51.90
2017-10-01T22:17:02.748Z,51.70
2017-10-01T22:19:37.505Z,51.60
2017-10-01T22:22:11.436Z,51.60
2017-10-01T22:24:46.121Z,51.80
2017-10-01T22:27:20.351Z,51.80
2017-10-01T22:29:54.249Z,51.90
2017-10-01T22:32:28.995Z,52.10
2017-10-01T22:35:02.862Z,52.00
2017-10-01T22:37:37.321Z,51.90
2017-10-01T22:40:12.134Z,52.10
2017-10-01T22:42:46.120Z,52.10
2017-10-01T22:45:20.746Z,52.00
2017-10-01T22:47:56.515Z,52.20
2017-10-01T22:50:31.429Z,52.20
2017-10-01T22:53:05.486Z,52.10
2017-10-01T22:55:39.455Z,52.10
2017-10-01T22:58:13.462Z,52.30
2017-10-01T23:00:47.401Z,52.10
2017-10-01T23:03:21.259Z,52.30
2017-10-01T23:05:55.136Z,52.30
2017-10-01T23:08:29.069Z,52.40
2017-10-01T23:11:02.916Z,52.40
2017-10-01T23:13:36.652Z,52.60
2017-10-01T23:16:11.204Z,52.60
2017-10-01T23:18:45.178Z,52.60
2017-10-01T23:21:18.882Z,52.40
2017-10-01T23:23:53.785Z,52.60
2017-10-01T23:26:27.608Z,52.60
2017-10-01T23:29:01.571Z,52.80
2017-10-01T23:31:35.526Z,52.60
2017-10-01T23:34:09.211Z,52.80
2017-10-01T23:36:44.077Z,52.60
2017-10-01T23:39:18.613Z,52.70
2017-10-01T23:41:53.226Z,52.80
2017-10-01T23:44:28.121Z,52.90
2017-10-01T23:47:02.929Z,52.80
2017-10-01T23:49:37.668Z,52.60
2017-10-01T23:52:11.799Z,52.60
2017-10-01T23:54:45.813Z,53.00
2017-10-01T23:57:20.415Z,53.50
2017-10-01T23:59:54.270Z,53.00
